createdAt,value
2019-04-05T00:00:02.995Z,100259.31
2019-04-05T00:00:41.932Z,100263.37
2019-04-05T00:01:08.216Z,100256.12
2019-04-05T00:01:32.851Z,100258.45
2019-04-05T00:01:57.636Z,100255.41
2019-04-05T00:02:22.424Z,100263.14
2019-04-05T00:02:47.072Z,100258.33
2019-04-05T00:03:11.739Z,100256.98
2019-04-05T00:03:36.394Z,100256.98
2019-04-05T00:04:01.073Z,100259.68
2019-04-05T00:04:25.761Z,100257.35
2019-04-05T00:04:50.466Z,100254.42
2019-04-05T00:05:15.206Z,100254.80
2019-04-05T00:05:39.928Z,100254.27
2019-04-05T00:06:04.571Z,100248.52
2019-04-05T00:06:29.230Z,100242.62
2019-04-05T00:06:53.961Z,100247.52
2019-04-05T00:07:18.686Z,100239.41
2019-04-05T00:07:43.461Z,100241.77
2019-04-05T00:08:08.115Z,100232.30
2019-04-05T00:08:32.769Z,100241.77
2019-04-05T00:08:57.429Z,100239.92
2019-04-05T00:09:22.071Z,100238.69
2019-04-05T00:09:46.716Z,100238.05
2019-04-05T00:10:11.439Z,100239.92
2019-04-05T00:10:36.163Z,100237.22
2019-04-05T00:11:00.828Z,100241.28
2019-04-05T00:11:25.486Z,100244.81
2019-04-05T00:11:50.146Z,100244.81
2019-04-05T00:12:14.797Z,100247.17
2019-04-05T00:12:39.497Z,100249.98
2019-04-05T00:13:04.462Z,100255.88
2019-04-05T00:13:29.160Z,100257.23
2019-04-05T00:13:53.870Z,100259.07
2019-04-05T00:14:18.597Z,100254.53
2019-04-05T00:14:43.239Z,100259.94
2019-04-05T00:15:15.183Z,100255.50
2019-04-05T00:15:34.245Z,100256.37
2019-04-05T00:15:58.926Z,100258.73
2019-04-05T00:16:23.562Z,100263.27
2019-04-05T00:16:48.222Z,100257.00
2019-04-05T00:17:13.787Z,100260.91
2019-04-05T00:17:38.457Z,100260.56
2019-04-05T00:18:03.195Z,100257.72
2019-04-05T00:18:27.878Z,100257.48
2019-04-05T00:18:52.518Z,100255.16
2019-04-05T00:19:17.175Z,100257.37
2019-04-05T00:19:41.817Z,100258.84
2019-04-05T00:20:07.725Z,100257.86
2019-04-05T00:20:32.384Z,100259.22
2019-04-05T00:20:57.016Z,100254.78
2019-04-05T00:21:21.687Z,100256.14
2019-04-05T00:21:46.415Z,100261.55
2019-04-05T00:22:11.045Z,100258.84
2019-04-05T00:22:35.735Z,100261.43
2019-04-05T00:23:00.406Z,100258.34
2019-04-05T00:23:25.092Z,100259.94
2019-04-05T00:23:49.787Z,100260.56
2019-04-05T00:24:14.595Z,100262.27
2019-04-05T00:24:39.292Z,100262.27
2019-04-05T00:25:05.517Z,100261.92
2019-04-05T00:25:30.163Z,100264.63
2019-04-05T00:25:54.913Z,100265.97
2019-04-05T00:26:19.554Z,100267.33
2019-04-05T00:26:44.221Z,100271.00
2019-04-05T00:27:08.887Z,100274.08
2019-04-05T00:27:33.517Z,100276.41
2019-04-05T00:27:58.195Z,100275.44
2019-04-05T00:28:23.056Z,100283.55
2019-04-05T00:28:47.735Z,100285.38
2019-04-05T00:29:12.412Z,100286.73
2019-04-05T00:29:37.047Z,100284.89
2019-04-05T00:30:01.740Z,100286.25
2019-04-05T00:30:26.397Z,100284.89
2019-04-05T00:30:51.051Z,100283.89
2019-04-05T00:31:15.732Z,100282.53
2019-04-05T00:31:40.387Z,100287.11
2019-04-05T00:32:05.063Z,100286.25
2019-04-05T00:32:29.705Z,100284.89
2019-04-05T00:32:54.372Z,100287.22
2019-04-05T00:33:19.085Z,100286.25
2019-04-05T00:33:43.741Z,100279.48
2019-04-05T00:34:08.443Z,100279.11
2019-04-05T00:34:33.229Z,100281.81
2019-04-05T00:34:57.875Z,100282.27
2019-04-05T00:35:22.551Z,100290.30
2019-04-05T00:35:47.197Z,100287.22
2019-04-05T00:36:11.842Z,100296.68
2019-04-05T00:36:36.529Z,100295.22
2019-04-05T00:37:01.249Z,100292.22
2019-04-05T00:37:26.040Z,100298.03
2019-04-05T00:37:50.695Z,100299.38
2019-04-05T00:38:15.362Z,100296.27
2019-04-05T00:38:40.040Z,100293.56
2019-04-05T00:39:07.634Z,100292.62
2019-04-05T00:39:32.381Z,100290.38
2019-04-05T00:39:57.045Z,100290.86
2019-04-05T00:40:21.683Z,100287.22
2019-04-05T00:40:46.464Z,100291.27
2019-04-05T00:41:11.264Z,100291.27
2019-04-05T00:41:36.905Z,100291.27
2019-04-05T00:42:01.545Z,100289.92
2019-04-05T00:42:26.233Z,100292.70
2019-04-05T00:42:51.081Z,100289.02
2019-04-05T00:43:15.739Z,100283.17
2019-04-05T00:43:40.459Z,100285.45
2019-04-05T00:44:05.077Z,100283.24
2019-04-05T00:44:29.825Z,100276.48
2019-04-05T00:44:54.521Z,100277.01
2019-04-05T00:45:28.007Z,100273.92
2019-04-05T00:45:45.986Z,100280.20
2019-04-05T00:46:10.627Z,100274.30
2019-04-05T00:46:35.307Z,100277.60
2019-04-05T00:47:00.011Z,100273.44
2019-04-05T00:47:24.676Z,100277.84
2019-04-05T00:47:49.326Z,100283.77
2019-04-05T00:48:13.979Z,100282.03
2019-04-05T00:48:38.660Z,100284.11
2019-04-05T00:49:03.332Z,100279.33
2019-04-05T00:49:27.994Z,100280.20
2019-04-05T00:49:52.629Z,100278.95
2019-04-05T00:50:17.291Z,100273.17
2019-04-05T00:50:42.010Z,100271.70
2019-04-05T00:51:06.676Z,100272.20
2019-04-05T00:51:31.333Z,100273.92
2019-04-05T00:51:55.979Z,100258.68
2019-04-05T00:52:20.657Z,100260.90
2019-04-05T00:52:45.297Z,100237.66
2019-04-05T00:53:10.001Z,100237.66
2019-04-05T00:53:34.633Z,100255.98
2019-04-05T00:53:59.295Z,100260.52
2019-04-05T00:54:23.946Z,100254.88
2019-04-05T00:54:48.611Z,100264.83
2019-04-05T00:55:13.802Z,100270.61
2019-04-05T00:55:38.532Z,100267.05
2019-04-05T00:56:03.173Z,100274.29
2019-04-05T00:56:27.837Z,100272.83
2019-04-05T00:56:52.497Z,100274.17
2019-04-05T00:57:17.152Z,100277.48
2019-04-05T00:57:41.783Z,100279.20
2019-04-05T00:58:06.437Z,100279.80
2019-04-05T00:58:31.108Z,100279.69
2019-04-05T00:58:55.755Z,100276.12
2019-04-05T00:59:20.441Z,100275.16
2019-04-05T00:59:45.125Z,100271.20
2019-04-05T01:00:09.767Z,100271.69
2019-04-05T01:00:34.443Z,100271.69
2019-04-05T01:00:59.103Z,100261.37
2019-04-05T01:01:23.767Z,100269.86
2019-04-05T01:02:53.128Z,100264.45
2019-04-05T01:03:17.864Z,100260.40
2019-04-05T01:03:42.620Z,100258.81
2019-04-05T01:04:07.349Z,100267.78
2019-04-05T01:04:31.997Z,100266.92
2019-04-05T01:04:56.659Z,100260.04
2019-04-05T01:05:21.299Z,100266.80
2019-04-05T01:05:45.997Z,100269.50
2019-04-05T01:06:10.694Z,100275.50
2019-04-05T01:06:35.351Z,100266.03
2019-04-05T01:07:00.000Z,100272.94
2019-04-05T01:07:24.658Z,100276.84
2019-04-05T01:07:49.346Z,100279.55
2019-04-05T01:08:14.004Z,100281.91
2019-04-05T01:08:38.666Z,100278.20
2019-04-05T01:09:03.609Z,100280.91
2019-04-05T01:09:28.256Z,100281.91
2019-04-05T01:09:52.980Z,100279.55
2019-04-05T01:10:17.749Z,100278.83
2019-04-05T01:10:42.421Z,100276.98
2019-04-05T01:11:07.080Z,100285.58
2019-04-05T01:11:31.741Z,100282.88
2019-04-05T01:11:56.387Z,100284.61
2019-04-05T01:12:21.776Z,100282.39
2019-04-05T01:12:46.832Z,100285.96
2019-04-05T01:13:11.488Z,100282.25
2019-04-05T01:13:36.163Z,100288.52
2019-04-05T01:14:00.833Z,100287.31
2019-04-05T01:14:25.493Z,100288.28
2019-04-05T01:14:50.146Z,100289.01
2019-04-05T01:15:15.872Z,100291.85
2019-04-05T01:15:41.416Z,100287.66
2019-04-05T01:16:06.204Z,100289.01
2019-04-05T01:16:30.891Z,100281.77
2019-04-05T01:16:55.644Z,100284.47
2019-04-05T01:17:25.183Z,100283.26
2019-04-05T01:17:46.649Z,100281.91
2019-04-05T01:18:11.349Z,100276.50
2019-04-05T01:18:36.066Z,100274.63
2019-04-05T01:19:00.732Z,100274.29
2019-04-05T01:19:26.741Z,100275.50
2019-04-05T01:19:51.406Z,100270.72
2019-04-05T01:20:16.074Z,100273.42
2019-04-05T01:20:40.839Z,100268.02
2019-04-05T01:21:05.477Z,100270.72
2019-04-05T01:21:33.429Z,100266.19
2019-04-05T01:21:58.131Z,100268.88
2019-04-05T01:22:25.201Z,100271.58
2019-04-05T01:22:49.854Z,100274.29
2019-04-05T01:23:14.528Z,100272.07
2019-04-05T01:23:39.213Z,100273.42
2019-04-05T01:24:03.866Z,100275.75
2019-04-05T01:24:28.523Z,100278.45
2019-04-05T01:24:53.187Z,100278.07
2019-04-05T01:25:17.830Z,100275.38
2019-04-05T01:25:42.467Z,100284.72
2019-04-05T01:26:07.116Z,100276.12
2019-04-05T01:26:31.833Z,100274.02
2019-04-05T01:26:56.563Z,100274.02
2019-04-05T01:27:21.627Z,100278.07
2019-04-05T01:27:48.474Z,100276.61
2019-04-05T01:28:12.960Z,100274.40
2019-04-05T01:28:37.732Z,100273.91
2019-04-05T01:29:02.462Z,100268.02
2019-04-05T01:29:27.134Z,100268.02
2019-04-05T01:29:51.786Z,100272.18
2019-04-05T01:30:16.427Z,100272.18
2019-04-05T01:30:41.110Z,100267.78
2019-04-05T01:31:05.770Z,100266.43
2019-04-05T01:31:30.430Z,100270.34
2019-04-05T01:31:55.110Z,100268.13
2019-04-05T01:32:19.765Z,100270.83
2019-04-05T01:32:44.487Z,100272.07
2019-04-05T01:33:09.134Z,100280.18
2019-04-05T01:33:33.796Z,100273.05
2019-04-05T01:33:58.443Z,100271.31
2019-04-05T01:34:23.094Z,100281.16
2019-04-05T01:34:47.824Z,100276.38
2019-04-05T01:35:13.020Z,100279.94
2019-04-05T01:35:37.677Z,100283.86
2019-04-05T01:36:02.336Z,100279.80
2019-04-05T01:36:27.030Z,100281.30
2019-04-05T01:36:51.754Z,100273.67
2019-04-05T01:37:16.522Z,100284.48
2019-04-05T01:37:41.194Z,100287.91
2019-04-05T01:38:05.944Z,100285.83
2019-04-05T01:38:30.685Z,100288.88
2019-04-05T01:38:55.378Z,100278.07
2019-04-05T01:39:20.248Z,100286.55
2019-04-05T01:39:44.892Z,100289.26
2019-04-05T01:40:09.658Z,100287.53
2019-04-05T01:40:34.576Z,100286.32
2019-04-05T01:40:59.290Z,100291.23
2019-04-05T01:41:23.942Z,100293.56
2019-04-05T01:41:48.631Z,100287.30
2019-04-05T01:42:13.298Z,100293.94
2019-04-05T01:42:38.513Z,100291.73
2019-04-05T01:43:03.223Z,100290.86
2019-04-05T01:43:28.004Z,100295.64
2019-04-05T01:43:52.648Z,100299.83
2019-04-05T01:44:17.314Z,100295.40
2019-04-05T01:44:41.962Z,100292.59
2019-04-05T01:45:09.319Z,100296.98
2019-04-05T01:45:33.941Z,100299.83
2019-04-05T01:45:58.588Z,100296.27
2019-04-05T01:46:23.252Z,100296.27
2019-04-05T01:46:47.894Z,100297.61
2019-04-05T01:47:13.075Z,100298.97
2019-04-05T01:47:37.722Z,100297.99
2019-04-05T01:48:02.384Z,100294.91
2019-04-05T01:48:27.043Z,100295.29
2019-04-05T01:48:51.716Z,100292.59
2019-04-05T01:49:16.346Z,100298.97
2019-04-05T01:49:41.049Z,100295.78
2019-04-05T01:50:06.810Z,100299.83
2019-04-05T01:50:31.454Z,100298.97
2019-04-05T01:50:56.106Z,100299.94
2019-04-05T01:51:20.844Z,100301.77
2019-04-05T01:51:45.505Z,100299.45
2019-04-05T01:52:10.152Z,100297.61
2019-04-05T01:52:34.954Z,100297.23
2019-04-05T01:52:59.762Z,100294.05
2019-04-05T01:53:24.432Z,100298.59
2019-04-05T01:53:49.145Z,100296.52
2019-04-05T01:54:13.834Z,100301.29
2019-04-05T01:54:38.513Z,100298.10
2019-04-05T01:55:03.342Z,100301.19
2019-04-05T01:55:28.052Z,100302.05
2019-04-05T01:55:52.730Z,100300.70
2019-04-05T01:56:17.441Z,100306.59
2019-04-05T01:56:42.092Z,100301.56
2019-04-05T01:57:06.732Z,100307.94
2019-04-05T01:57:31.460Z,100299.69
2019-04-05T01:57:56.133Z,100300.70
2019-04-05T01:58:20.773Z,100306.45
2019-04-05T01:58:45.435Z,100303.39
2019-04-05T01:59:10.088Z,100308.42
2019-04-05T01:59:34.776Z,100302.53
2019-04-05T01:59:59.446Z,100309.14
2019-04-05T02:00:24.101Z,100307.80
2019-04-05T02:00:49.490Z,100315.07
2019-04-05T02:01:14.460Z,100313.34
2019-04-05T02:01:39.169Z,100316.53
2019-04-05T02:02:03.910Z,100320.09
2019-04-05T02:02:28.706Z,100317.25
2019-04-05T02:02:53.425Z,100321.31
2019-04-05T02:03:18.065Z,100324.01
2019-04-05T02:03:42.750Z,100319.95
2019-04-05T02:04:07.378Z,100334.81
2019-04-05T02:04:32.065Z,100329.41
2019-04-05T02:04:56.784Z,100330.91
2019-04-05T02:05:21.453Z,100334.95
2019-04-05T02:05:46.136Z,100335.82
2019-04-05T02:06:10.819Z,100332.26
2019-04-05T02:06:35.545Z,100332.74
2019-04-05T02:07:00.191Z,100333.13
2019-04-05T02:07:24.859Z,100334.81
2019-04-05T02:07:49.554Z,100338.15
2019-04-05T02:08:14.191Z,100339.50
2019-04-05T02:08:38.890Z,100337.77
2019-04-05T02:09:04.574Z,100327.34
2019-04-05T02:09:29.212Z,100334.69
2019-04-05T02:09:53.887Z,100338.73
2019-04-05T02:10:18.612Z,100339.60
2019-04-05T02:10:43.260Z,100332.99
2019-04-05T02:11:07.899Z,100332.36
2019-04-05T02:11:32.556Z,100329.28
2019-04-05T02:11:57.236Z,100335.06
2019-04-05T02:12:21.896Z,100331.98
2019-04-05T02:12:46.688Z,100329.66
2019-04-05T02:13:11.348Z,100336.04
2019-04-05T02:13:36.000Z,100333.85
2019-04-05T02:14:00.668Z,100328.45
2019-04-05T02:14:25.312Z,100327.20
2019-04-05T02:14:50.025Z,100324.98
2019-04-05T02:15:25.863Z,100326.83
2019-04-05T02:15:50.513Z,100329.53
2019-04-05T02:16:15.163Z,100327.20
2019-04-05T02:16:39.824Z,100324.50
2019-04-05T02:17:04.483Z,100317.75
2019-04-05T02:17:29.139Z,100320.94
2019-04-05T02:17:53.818Z,100320.08
2019-04-05T02:18:18.455Z,100319.59
2019-04-05T02:18:43.132Z,100314.29
2019-04-05T02:19:07.866Z,100317.37
2019-04-05T02:19:32.539Z,100315.64
2019-04-05T02:19:57.178Z,100316.98
2019-04-05T02:20:21.825Z,100313.95
2019-04-05T02:20:46.504Z,100313.31
2019-04-05T02:21:11.186Z,100312.83
2019-04-05T02:21:35.849Z,100312.59
2019-04-05T02:22:00.525Z,100309.41
2019-04-05T02:22:25.250Z,100312.59
2019-04-05T02:22:49.908Z,100313.95
2019-04-05T02:23:14.602Z,100314.67
2019-04-05T02:23:39.266Z,100309.89
2019-04-05T02:24:03.964Z,100307.19
2019-04-05T02:24:29.006Z,100322.05
2019-04-05T02:24:53.642Z,100316.98
2019-04-05T02:25:18.404Z,100322.39
2019-04-05T02:25:43.060Z,100328.31
2019-04-05T02:26:07.758Z,100321.05
2019-04-05T02:26:32.412Z,100326.45
2019-04-05T02:26:57.040Z,100329.88
2019-04-05T02:27:21.693Z,100332.10
2019-04-05T02:27:46.362Z,100334.80
2019-04-05T02:28:11.011Z,100333.34
2019-04-05T02:28:35.713Z,100339.23
2019-04-05T02:29:00.421Z,100339.23
2019-04-05T02:29:25.079Z,100340.58
2019-04-05T02:29:49.786Z,100341.07
2019-04-05T02:30:14.426Z,100350.52
2019-04-05T02:30:39.087Z,100343.66
2019-04-05T02:31:03.740Z,100356.31
2019-04-05T02:31:28.426Z,100357.17
2019-04-05T02:31:53.108Z,100348.69
2019-04-05T02:32:17.748Z,100356.17
2019-04-05T02:32:42.451Z,100356.80
2019-04-05T02:33:07.197Z,100354.47
2019-04-05T02:33:31.860Z,100350.42
2019-04-05T02:33:56.533Z,100355.82
2019-04-05T02:34:21.183Z,100351.77
2019-04-05T02:34:45.858Z,100356.80
2019-04-05T02:35:10.537Z,100357.17
2019-04-05T02:35:38.949Z,100352.12
2019-04-05T02:36:01.685Z,100352.50
2019-04-05T02:36:26.415Z,100351.63
2019-04-05T02:36:51.111Z,100350.42
2019-04-05T02:37:15.778Z,100349.06
2019-04-05T02:37:40.411Z,100342.91
2019-04-05T02:38:05.050Z,100345.36
2019-04-05T02:38:29.693Z,100343.66
2019-04-05T02:38:54.370Z,100337.26
2019-04-05T02:39:19.020Z,100339.47
2019-04-05T02:39:43.668Z,100338.61
2019-04-05T02:40:11.720Z,100330.16
2019-04-05T02:40:36.537Z,100335.56
2019-04-05T02:41:01.342Z,100332.86
2019-04-05T02:41:26.038Z,100329.15
2019-04-05T02:41:50.755Z,100330.50
2019-04-05T02:42:15.584Z,100331.51
2019-04-05T02:42:40.422Z,100323.75
2019-04-05T02:43:05.147Z,100330.27
2019-04-05T02:43:29.895Z,100329.40
2019-04-05T02:43:54.992Z,100334.31
2019-04-05T02:44:19.697Z,100332.48
2019-04-05T02:44:44.404Z,100336.53
2019-04-05T02:45:09.648Z,100335.18
2019-04-05T02:45:34.495Z,100341.07
2019-04-05T02:45:59.159Z,100339.23
2019-04-05T02:46:24.500Z,100337.40
2019-04-05T02:46:49.261Z,100347.34
2019-04-05T02:47:13.946Z,100340.96
2019-04-05T02:47:39.702Z,100341.94
2019-04-05T02:48:05.164Z,100341.94
2019-04-05T02:48:29.841Z,100338.37
2019-04-05T02:48:54.449Z,100338.47
2019-04-05T02:49:19.525Z,100347.34
2019-04-05T02:49:44.128Z,100347.34
2019-04-05T02:50:08.813Z,100343.88
2019-04-05T02:50:33.579Z,100347.83
2019-04-05T02:50:58.754Z,100348.31
2019-04-05T02:51:23.722Z,100349.17
2019-04-05T02:51:48.389Z,100349.17
2019-04-05T02:52:14.047Z,100344.74
2019-04-05T02:52:38.655Z,100352.36
2019-04-05T02:53:04.677Z,100342.91
2019-04-05T02:53:29.527Z,100351.02
2019-04-05T02:53:54.830Z,100350.04
2019-04-05T02:54:19.463Z,100348.69
2019-04-05T02:54:44.143Z,100338.85
2019-04-05T02:55:08.806Z,100345.13
2019-04-05T02:55:33.489Z,100345.23
2019-04-05T02:55:58.139Z,100339.83
2019-04-05T02:56:22.791Z,100346.96
2019-04-05T02:56:47.593Z,100345.23
2019-04-05T02:57:13.360Z,100324.95
2019-04-05T02:57:37.985Z,100324.95
2019-04-05T02:58:02.603Z,100347.83
2019-04-05T02:58:27.255Z,100351.39
2019-04-05T02:58:51.913Z,100353.23
2019-04-05T02:59:16.511Z,100351.02
2019-04-05T02:59:41.222Z,100350.14
2019-04-05T03:00:05.906Z,100353.71
2019-04-05T03:00:30.642Z,100348.80
2019-04-05T03:00:55.295Z,100351.15
2019-04-05T03:01:22.736Z,100346.96
2019-04-05T03:01:46.394Z,100351.98
2019-04-05T03:02:11.049Z,100354.69
2019-04-05T03:02:36.166Z,100360.47
2019-04-05T03:03:01.464Z,100349.42
2019-04-05T03:03:26.119Z,100357.39
2019-04-05T03:03:51.206Z,100351.98
2019-04-05T03:04:15.827Z,100355.06
2019-04-05T03:04:40.537Z,100354.69
2019-04-05T03:05:06.159Z,100359.11
2019-04-05T03:05:30.787Z,100355.55
2019-04-05T03:05:55.425Z,100351.15
2019-04-05T03:06:20.039Z,100352.50
2019-04-05T03:06:44.690Z,100347.45
2019-04-05T03:07:09.308Z,100352.98
2019-04-05T03:07:33.942Z,100355.69
2019-04-05T03:07:58.579Z,100351.02
2019-04-05T03:08:23.206Z,100360.47
2019-04-05T03:08:47.822Z,100355.20
2019-04-05T03:09:13.336Z,100357.39
2019-04-05T03:09:37.998Z,100355.69
2019-04-05T03:10:02.626Z,100355.69
2019-04-05T03:10:59.476Z,100353.09
2019-04-05T03:11:25.779Z,100352.61
2019-04-05T03:11:50.614Z,100357.14
2019-04-05T03:12:18.822Z,100357.63
2019-04-05T03:12:41.607Z,100353.20
2019-04-05T03:13:06.222Z,100357.77
2019-04-05T03:13:31.817Z,100363.66
2019-04-05T03:13:57.425Z,100360.69
2019-04-05T03:14:22.059Z,100361.69
2019-04-05T03:14:46.814Z,100362.55
2019-04-05T03:15:11.437Z,100365.59
2019-04-05T03:15:36.071Z,100366.95
2019-04-05T03:16:02.752Z,100365.59
2019-04-05T03:16:40.197Z,100372.59
2019-04-05T03:16:55.630Z,100368.16
2019-04-05T03:17:20.346Z,100365.47
2019-04-05T03:17:44.976Z,100367.58
2019-04-05T03:18:09.633Z,100365.47
2019-04-05T03:18:34.825Z,100360.82
2019-04-05T03:19:08.833Z,100362.17
2019-04-05T03:19:33.950Z,100362.27
2019-04-05T03:19:58.573Z,100364.11
2019-04-05T03:20:23.244Z,100360.06
2019-04-05T03:20:47.916Z,100360.92
2019-04-05T03:21:13.463Z,100362.77
2019-04-05T03:21:40.391Z,100361.80
2019-04-05T03:22:06.358Z,100357.84
2019-04-05T03:22:31.009Z,100360.92
2019-04-05T03:22:55.658Z,100361.41
2019-04-05T03:23:20.292Z,100359.20
2019-04-05T03:23:44.921Z,100356.63
2019-04-05T03:24:10.425Z,100356.25
2019-04-05T03:24:36.136Z,100353.80
2019-04-05T03:25:00.766Z,100357.36
2019-04-05T03:25:25.390Z,100359.82
2019-04-05T03:25:50.071Z,100357.98
2019-04-05T03:26:17.858Z,100354.42
2019-04-05T03:26:45.800Z,100358.71
2019-04-05T03:27:12.533Z,100357.98
2019-04-05T03:27:37.531Z,100356.25
2019-04-05T03:28:02.252Z,100357.02
2019-04-05T03:28:26.859Z,100360.20
2019-04-05T03:28:52.539Z,100359.33
2019-04-05T03:29:17.153Z,100368.41
2019-04-05T03:29:41.880Z,100363.98
2019-04-05T03:30:07.279Z,100363.63
2019-04-05T03:30:31.956Z,100362.14
2019-04-05T03:30:57.059Z,100369.86
2019-04-05T03:31:25.064Z,100368.65
2019-04-05T03:31:48.125Z,100363.98
2019-04-05T03:32:13.474Z,100369.03
2019-04-05T03:32:38.092Z,100363.11
2019-04-05T03:33:02.820Z,100365.47
2019-04-05T03:33:27.568Z,100365.47
2019-04-05T03:33:52.187Z,100365.95
2019-04-05T03:34:17.073Z,100365.95
2019-04-05T03:34:41.742Z,100366.44
2019-04-05T03:35:07.342Z,100365.47
2019-04-05T03:35:32.061Z,100362.77
2019-04-05T03:35:56.704Z,100365.47
2019-04-05T03:36:21.340Z,100358.71
2019-04-05T03:36:45.978Z,100360.41
2019-04-05T03:37:10.782Z,100357.84
2019-04-05T03:37:35.412Z,100361.27
2019-04-05T03:38:00.184Z,100360.55
2019-04-05T03:38:24.812Z,100369.37
2019-04-05T03:38:50.262Z,100364.11
2019-04-05T03:39:14.871Z,100359.58
2019-04-05T03:39:39.499Z,100355.53
2019-04-05T03:40:06.497Z,100355.87
2019-04-05T03:40:31.135Z,100354.91
2019-04-05T03:40:55.844Z,100355.53
2019-04-05T03:41:20.529Z,100354.17
2019-04-05T03:41:45.133Z,100352.69
2019-04-05T03:42:09.912Z,100351.48
2019-04-05T03:42:34.575Z,100349.13
2019-04-05T03:42:59.201Z,100346.80
2019-04-05T03:43:23.988Z,100342.75
2019-04-05T03:43:49.272Z,100345.94
2019-04-05T03:44:13.924Z,100345.45
2019-04-05T03:44:38.537Z,100345.45
2019-04-05T03:45:03.232Z,100339.56
2019-04-05T03:45:27.870Z,100337.83
2019-04-05T03:45:52.524Z,100349.39
2019-04-05T03:46:17.174Z,100344.48
2019-04-05T03:46:55.707Z,100337.72
2019-04-05T03:47:08.109Z,100339.08
2019-04-05T03:47:32.803Z,100339.94
2019-04-05T03:47:57.445Z,100347.55
2019-04-05T03:48:22.053Z,100348.91
2019-04-05T03:48:46.706Z,100346.55
2019-04-05T03:49:11.334Z,100352.96
2019-04-05T03:49:35.952Z,100344.09
2019-04-05T03:50:00.602Z,100352.58
2019-04-05T03:50:25.339Z,100350.85
2019-04-05T03:50:49.999Z,100354.91
2019-04-05T03:51:14.638Z,100352.58
2019-04-05T03:51:39.310Z,100356.63
2019-04-05T03:52:05.308Z,100351.72
2019-04-05T03:52:29.982Z,100353.93
2019-04-05T03:52:54.600Z,100356.73
2019-04-05T03:53:19.250Z,100357.50
2019-04-05T03:53:43.890Z,100356.02
2019-04-05T03:54:08.580Z,100356.63
2019-04-05T03:54:33.480Z,100356.25
2019-04-05T03:54:58.114Z,100357.12
2019-04-05T03:55:22.772Z,100355.77
2019-04-05T03:55:47.409Z,100353.06
2019-04-05T03:56:12.028Z,100354.42
2019-04-05T03:56:38.175Z,100358.47
2019-04-05T03:57:03.205Z,100356.63
2019-04-05T03:57:27.818Z,100354.52
2019-04-05T03:57:52.436Z,100352.20
2019-04-05T03:58:17.070Z,100352.20
2019-04-05T03:58:41.747Z,100351.33
2019-04-05T03:59:06.452Z,100351.82
2019-04-05T03:59:31.098Z,100349.88
2019-04-05T03:59:56.085Z,100347.04
2019-04-05T04:00:20.710Z,100338.70
2019-04-05T04:00:45.372Z,100336.48
2019-04-05T04:01:10.012Z,100342.27
2019-04-05T04:01:34.707Z,100342.75
2019-04-05T04:01:59.377Z,100340.05
2019-04-05T04:02:24.011Z,100338.70
2019-04-05T04:02:48.659Z,100338.45
2019-04-05T04:03:13.794Z,100338.21
2019-04-05T04:03:38.524Z,100343.13
2019-04-05T04:04:03.616Z,100339.08
2019-04-05T04:04:28.318Z,100342.27
2019-04-05T04:04:52.952Z,100341.39
2019-04-05T04:05:17.595Z,100337.34
2019-04-05T04:05:42.365Z,100350.85
2019-04-05T04:06:07.114Z,100345.94
2019-04-05T04:06:31.751Z,100341.39
2019-04-05T04:06:56.821Z,100342.75
2019-04-05T04:07:21.453Z,100345.45
2019-04-05T04:07:46.445Z,100344.20
2019-04-05T04:08:11.489Z,100343.72
2019-04-05T04:08:36.131Z,100347.42
2019-04-05T04:09:00.767Z,100349.26
2019-04-05T04:09:25.483Z,100344.72
2019-04-05T04:09:50.104Z,100348.15
2019-04-05T04:10:19.145Z,100350.47
2019-04-05T04:10:43.761Z,100346.08
2019-04-05T04:11:08.558Z,100350.13
2019-04-05T04:11:33.207Z,100350.13
2019-04-05T04:11:57.830Z,100355.53
2019-04-05T04:12:22.481Z,100349.74
2019-04-05T04:12:47.136Z,100354.52
2019-04-05T04:13:11.757Z,100353.31
2019-04-05T04:13:36.387Z,100351.48
2019-04-05T04:14:01.477Z,100351.48
2019-04-05T04:14:26.120Z,100352.44
2019-04-05T04:14:50.757Z,100348.87
2019-04-05T04:15:15.484Z,100347.04
2019-04-05T04:15:40.105Z,100352.93
2019-04-05T04:16:04.879Z,100350.23
2019-04-05T04:16:29.560Z,100349.74
2019-04-05T04:16:54.218Z,100345.69
2019-04-05T04:17:18.831Z,100342.13
2019-04-05T04:17:44.315Z,100346.17
2019-04-05T04:18:08.938Z,100344.94
2019-04-05T04:18:33.571Z,100346.28
2019-04-05T04:18:58.764Z,100342.23
2019-04-05T04:19:23.662Z,100341.88
2019-04-05T04:19:48.347Z,100339.19
2019-04-05T04:20:22.245Z,100346.28
2019-04-05T04:20:50.156Z,100343.58
2019-04-05T04:21:30.241Z,100344.06
2019-04-05T04:22:00.935Z,100341.88
2019-04-05T04:22:28.615Z,100342.23
2019-04-05T04:22:53.255Z,100341.36
2019-04-05T04:23:17.883Z,100340.16
2019-04-05T04:23:42.516Z,100343.23
2019-04-05T04:24:07.902Z,100342.47
2019-04-05T04:24:32.705Z,100343.83
2019-04-05T04:24:57.371Z,100341.61
2019-04-05T04:25:21.979Z,100349.23
2019-04-05T04:25:46.630Z,100348.36
2019-04-05T04:26:11.239Z,100351.06
2019-04-05T04:26:35.863Z,100346.63
2019-04-05T04:27:00.508Z,100347.50
2019-04-05T04:27:25.175Z,100349.84
2019-04-05T04:27:49.829Z,100352.55
2019-04-05T04:28:14.531Z,100350.20
2019-04-05T04:28:39.207Z,100350.95
2019-04-05T04:29:03.765Z,100347.77
2019-04-05T04:29:28.407Z,100354.52
2019-04-05T04:29:53.060Z,100345.94
2019-04-05T04:30:17.671Z,100347.28
2019-04-05T04:30:42.337Z,100349.23
2019-04-05T04:31:06.951Z,100344.59
2019-04-05T04:31:31.600Z,100347.14
2019-04-05T04:31:56.411Z,100348.02
2019-04-05T04:32:21.106Z,100347.04
2019-04-05T04:32:45.895Z,100346.17
2019-04-05T04:33:10.602Z,100343.96
2019-04-05T04:33:35.503Z,100342.61
2019-04-05T04:34:00.176Z,100347.14
2019-04-05T04:34:24.797Z,100346.28
2019-04-05T04:34:49.505Z,100344.94
2019-04-05T04:35:14.155Z,100344.45
2019-04-05T04:35:38.856Z,100348.02
2019-04-05T04:36:03.473Z,100350.72
2019-04-05T04:36:28.114Z,100348.77
2019-04-05T04:36:52.746Z,100345.94
2019-04-05T04:37:17.488Z,100348.15
2019-04-05T04:37:42.197Z,100349.50
2019-04-05T04:38:06.934Z,100345.34
2019-04-05T04:38:31.609Z,100345.83
2019-04-05T04:38:56.234Z,100335.41
2019-04-05T04:39:20.897Z,100339.80
2019-04-05T04:39:45.538Z,100342.88
2019-04-05T04:40:10.635Z,100340.94
2019-04-05T04:40:35.350Z,100338.09
2019-04-05T04:41:00.013Z,100340.80
2019-04-05T04:41:24.618Z,100339.83
2019-04-05T04:41:49.630Z,100339.34
2019-04-05T04:42:14.430Z,100339.69
2019-04-05T04:42:39.183Z,100338.72
2019-04-05T04:43:03.824Z,100336.98
2019-04-05T04:43:28.502Z,100347.09
2019-04-05T04:43:53.129Z,100341.17
2019-04-05T04:44:17.834Z,100344.74
2019-04-05T04:44:42.564Z,100345.50
2019-04-05T04:45:12.642Z,100344.74
2019-04-05T04:45:33.546Z,100342.91
2019-04-05T04:45:58.166Z,100338.85